sensor_id;sensor_type;location;lat;lon;timestamp;pressure;altitude;pressure_sealevel;temperature
67599;BMP280;62026;39.230;9.122;2023-06-24T00:00:13;101189.88;;;25.26
67599;BMP280;62026;39.230;9.122;2023-06-24T00:02:43;101184.06;;;25.33
67599;BMP280;62026;39.230;9.122;2023-06-24T00:05:10;101184.38;;;25.31
67599;BMP280;62026;39.230;9.122;2023-06-24T00:07:36;101185.25;;;25.27
67599;BMP280;62026;39.230;9.122;2023-06-24T00:10:14;101181.06;;;25.21
67599;BMP280;62026;39.230;9.122;2023-06-24T00:12:40;101176.66;;;25.25
67599;BMP280;62026;39.230;9.122;2023-06-24T00:15:08;101178.06;;;25.22
67599;BMP280;62026;39.230;9.122;2023-06-24T00:17:38;101169.53;;;25.15
67599;BMP280;62026;39.230;9.122;2023-06-24T00:20:04;101170.16;;;25.12
67599;BMP280;62026;39.230;9.122;2023-06-24T00:22:33;101165.44;;;25.17
67599;BMP280;62026;39.230;9.122;2023-06-24T00:24:59;101172.47;;;25.05
67599;BMP280;62026;39.230;9.122;2023-06-24T00:27:26;101163.38;;;25.01
67599;BMP280;62026;39.230;9.122;2023-06-24T00:29:52;101159.66;;;24.97
67599;BMP280;62026;39.230;9.122;2023-06-24T00:32:19;101150.25;;;25.08
67599;BMP280;62026;39.230;9.122;2023-06-24T00:34:44;101148.63;;;25.07
67599;BMP280;62026;39.230;9.122;2023-06-24T00:37:14;101147.63;;;25.03
67599;BMP280;62026;39.230;9.122;2023-06-24T00:39:40;101160.03;;;25.04
67599;BMP280;62026;39.230;9.122;2023-06-24T00:42:06;101161.72;;;25.00
67599;BMP280;62026;39.230;9.122;2023-06-24T00:44:32;101162.84;;;24.99
67599;BMP280;62026;39.230;9.122;2023-06-24T00:46:59;101159.34;;;24.98
67599;BMP280;62026;39.230;9.122;2023-06-24T00:49:27;101159.66;;;24.97
67599;BMP280;62026;39.230;9.122;2023-06-24T00:51:53;101158.66;;;24.93
67599;BMP280;62026;39.230;9.122;2023-06-24T00:54:21;101141.59;;;24.92
67599;BMP280;62026;39.230;9.122;2023-06-24T00:56:48;101135.44;;;24.92
67599;BMP280;62026;39.230;9.122;2023-06-24T00:59:16;101142.53;;;24.88
67599;BMP280;62026;39.230;9.122;2023-06-24T01:01:44;101144.03;;;24.80
67599;BMP280;62026;39.230;9.122;2023-06-24T01:04:11;101136.63;;;24.86
67599;BMP280;62026;39.230;9.122;2023-06-24T01:06:37;101143.41;;;24.83
67599;BMP280;62026;39.230;9.122;2023-06-24T01:09:09;101138.25;;;24.87
67599;BMP280;62026;39.230;9.122;2023-06-24T01:11:35;101137.63;;;24.76
67599;BMP280;62026;39.230;9.122;2023-06-24T01:14:01;101137.81;;;24.80
67599;BMP280;62026;39.230;9.122;2023-06-24T01:20:31;101133.81;;;24.77
67599;BMP280;62026;39.230;9.122;2023-06-24T01:31:59;101133.00;;;24.76
67599;BMP280;62026;39.230;9.122;2023-06-24T01:34:38;101133.13;;;24.71
67599;BMP280;62026;39.230;9.122;2023-06-24T01:37:41;101132.81;;;24.73
67599;BMP280;62026;39.230;9.122;2023-06-24T01:42:43;101133.53;;;24.79
67599;BMP280;62026;39.230;9.122;2023-06-24T01:45:21;101129.31;;;24.72
67599;BMP280;62026;39.230;9.122;2023-06-24T01:48:02;101121.72;;;24.74
67599;BMP280;62026;39.230;9.122;2023-06-24T01:50:33;101127.81;;;24.66
67599;BMP280;62026;39.230;9.122;2023-06-24T01:53:06;101133.13;;;24.71
67599;BMP280;62026;39.230;9.122;2023-06-24T01:55:35;101130.00;;;24.64
67599;BMP280;62026;39.230;9.122;2023-06-24T01:58:05;101125.19;;;24.75
67599;BMP280;62026;39.230;9.122;2023-06-24T02:00:35;101127.13;;;24.74
67599;BMP280;62026;39.230;9.122;2023-06-24T02:03:04;101128.22;;;24.73
67599;BMP280;62026;39.230;9.122;2023-06-24T02:05:33;101120.41;;;24.72
67599;BMP280;62026;39.230;9.122;2023-06-24T02:08:03;101125.59;;;24.68
67599;BMP280;62026;39.230;9.122;2023-06-24T02:10:30;101116.50;;;24.64
67599;BMP280;62026;39.230;9.122;2023-06-24T02:12:58;101118.22;;;24.60
67599;BMP280;62026;39.230;9.122;2023-06-24T02:15:28;101120.41;;;24.58
67599;BMP280;62026;39.230;9.122;2023-06-24T02:17:55;101115.31;;;24.57
67599;BMP280;62026;39.230;9.122;2023-06-24T02:20:24;101115.59;;;24.55
67599;BMP280;62026;39.230;9.122;2023-06-24T02:22:54;101117.28;;;24.51
67599;BMP280;62026;39.230;9.122;2023-06-24T02:25:23;101117.59;;;24.50
67599;BMP280;62026;39.230;9.122;2023-06-24T02:27:50;101114.91;;;24.50
67599;BMP280;62026;39.230;9.122;2023-06-24T02:30:17;101122.59;;;24.43
67599;BMP280;62026;39.230;9.122;2023-06-24T02:32:43;101117.00;;;24.39
67599;BMP280;62026;39.230;9.122;2023-06-24T02:35:09;101124.66;;;24.32
67599;BMP280;62026;39.230;9.122;2023-06-24T02:37:35;101121.00;;;24.23
67599;BMP280;62026;39.230;9.122;2023-06-24T02:40:02;101124.13;;;24.30
67599;BMP280;62026;39.230;9.122;2023-06-24T02:42:29;101119.13;;;24.23
67599;BMP280;62026;39.230;9.122;2023-06-24T02:44:55;101105.41;;;24.20
67599;BMP280;62026;39.230;9.122;2023-06-24T02:47:22;101102.31;;;24.13
67599;BMP280;62026;39.230;9.122;2023-06-24T02:49:50;101095.31;;;24.12
67599;BMP280;62026;39.230;9.122;2023-06-24T02:52:17;101100.16;;;24.28
67599;BMP280;62026;39.230;9.122;2023-06-24T02:54:44;101094.56;;;24.25
67599;BMP280;62026;39.230;9.122;2023-06-24T02:57:30;101093.81;;;24.19
67599;BMP280;62026;39.230;9.122;2023-06-24T03:00:17;101085.25;;;24.17
67599;BMP280;62026;39.230;9.122;2023-06-24T03:03:06;101078.72;;;24.18
67599;BMP280;62026;39.230;9.122;2023-06-24T03:05:35;101075.81;;;24.15
67599;BMP280;62026;39.230;9.122;2023-06-24T03:08:02;101070.72;;;24.13
67599;BMP280;62026;39.230;9.122;2023-06-24T03:10:30;101071.53;;;24.14
67599;BMP280;62026;39.230;9.122;2023-06-24T03:12:57;101080.09;;;24.16
67599;BMP280;62026;39.230;9.122;2023-06-24T03:15:31;101074.56;;;24.26
67599;BMP280;62026;39.230;9.122;2023-06-24T03:17:58;101070.94;;;24.17
67599;BMP280;62026;39.230;9.122;2023-06-24T03:20:24;101070.53;;;24.10
67599;BMP280;62026;39.230;9.122;2023-06-24T03:22:50;101067.50;;;24.11
67599;BMP280;62026;39.230;9.122;2023-06-24T03:25:20;101075.03;;;24.14
67599;BMP280;62026;39.230;9.122;2023-06-24T03:27:48;101069.72;;;24.09
67599;BMP280;62026;39.230;9.122;2023-06-24T03:30:14;101072.91;;;24.11
67599;BMP280;62026;39.230;9.122;2023-06-24T03:32:42;101072.69;;;24.08
67599;BMP280;62026;39.230;9.122;2023-06-24T03:35:13;101070.31;;;24.06
67599;BMP280;62026;39.230;9.122;2023-06-24T03:37:40;101074.31;;;24.09
67599;BMP280;62026;39.230;9.122;2023-06-24T03:40:07;101064.50;;;23.99
67599;BMP280;62026;39.230;9.122;2023-06-24T03:42:35;101065.28;;;24.00
67599;BMP280;62026;39.230;9.122;2023-06-24T03:45:03;101060.69;;;24.00
67599;BMP280;62026;39.230;9.122;2023-06-24T03:47:29;101065.91;;;23.97
67599;BMP280;62026;39.230;9.122;2023-06-24T03:49:55;101062.50;;;24.05
67599;BMP280;62026;39.230;9.122;2023-06-24T03:52:21;101073.28;;;24.05
67599;BMP280;62026;39.230;9.122;2023-06-24T03:54:48;101060.94;;;24.04
67599;BMP280;62026;39.230;9.122;2023-06-24T03:57:15;101067.47;;;23.98
67599;BMP280;62026;39.230;9.122;2023-06-24T03:59:41;101060.50;;;23.97
67599;BMP280;62026;39.230;9.122;2023-06-24T04:02:07;101061.78;;;23.99
67599;BMP280;62026;39.230;9.122;2023-06-24T04:04:36;101054.72;;;24.03
67599;BMP280;62026;39.230;9.122;2023-06-24T04:07:03;101057.72;;;24.02
67599;BMP280;62026;39.230;9.122;2023-06-24T04:09:35;101054.34;;;24.10
67599;BMP280;62026;39.230;9.122;2023-06-24T04:12:02;101057.09;;;24.05
67599;BMP280;62026;39.230;9.122;2023-06-24T04:14:33;101060.31;;;24.07
67599;BMP280;62026;39.230;9.122;2023-06-24T04:16:59;101062.91;;;24.12
67599;BMP280;62026;39.230;9.122;2023-06-24T04:19:25;101058.13;;;24.09
67599;BMP280;62026;39.230;9.122;2023-06-24T04:21:51;101060.72;;;24.14
67599;BMP280;62026;39.230;9.122;2023-06-24T04:24:17;101058.53;;;24.16
67599;BMP280;62026;39.230;9.122;2023-06-24T04:26:43;101056.44;;;24.13
67599;BMP280;62026;39.230;9.122;2023-06-24T04:29:09;101053.72;;;24.13
67599;BMP280;62026;39.230;9.122;2023-06-24T04:31:35;101048.72;;;24.06
67599;BMP280;62026;39.230;9.122;2023-06-24T04:34:01;101047.72;;;24.16
67599;BMP280;62026;39.230;9.122;2023-06-24T04:36:28;101056.31;;;24.04
67599;BMP280;62026;39.230;9.122;2023-06-24T04:38:54;101068.25;;;24.17
67599;BMP280;62026;39.230;9.122;2023-06-24T04:41:20;101067.16;;;24.18
67599;BMP280;62026;39.230;9.122;2023-06-24T04:43:46;101067.16;;;24.18
67599;BMP280;62026;39.230;9.122;2023-06-24T04:46:12;101069.31;;;24.16
67599;BMP280;62026;39.230;9.122;2023-06-24T04:48:38;101069.72;;;24.23
67599;BMP280;62026;39.230;9.122;2023-06-24T04:51:04;101073.94;;;24.29
67599;BMP280;62026;39.230;9.122;2023-06-24T04:53:30;101064.16;;;24.33
67599;BMP280;62026;39.230;9.122;2023-06-24T04:55:56;101068.47;;;24.34
67599;BMP280;62026;39.230;9.122;2023-06-24T04:58:22;101063.56;;;24.36
67599;BMP280;62026;39.230;9.122;2023-06-24T05:00:48;101064.69;;;24.35
67599;BMP280;62026;39.230;9.122;2023-06-24T05:03:14;101069.97;;;24.40
67599;BMP280;62026;39.230;9.122;2023-06-24T05:05:40;101072.81;;;24.49
67599;BMP280;62026;39.230;9.122;2023-06-24T05:08:06;101074.72;;;24.62
67599;BMP280;62026;39.230;9.122;2023-06-24T05:10:32;101078.22;;;24.62
67599;BMP280;62026;39.230;9.122;2023-06-24T05:12:58;101088.72;;;24.78
67599;BMP280;62026;39.230;9.122;2023-06-24T05:15:24;101078.00;;;24.72
67599;BMP280;62026;39.230;9.122;2023-06-24T05:17:50;101087.09;;;24.76
67599;BMP280;62026;39.230;9.122;2023-06-24T05:20:16;101088.91;;;24.81
67599;BMP280;62026;39.230;9.122;2023-06-24T05:22:43;101081.97;;;24.89
67599;BMP280;62026;39.230;9.122;2023-06-24T05:25:09;101085.59;;;24.98
67599;BMP280;62026;39.230;9.122;2023-06-24T05:27:35;101087.19;;;25.12
67599;BMP280;62026;39.230;9.122;2023-06-24T05:30:01;101084.53;;;25.21
67599;BMP280;62026;39.230;9.122;2023-06-24T05:32:28;101090.81;;;25.30
67599;BMP280;62026;39.230;9.122;2023-06-24T05:34:54;101090.63;;;25.27
67599;BMP280;62026;39.230;9.122;2023-06-24T05:37:20;101090.13;;;25.38
67599;BMP280;62026;39.230;9.122;2023-06-24T05:39:46;101087.66;;;25.50
67599;BMP280;62026;39.230;9.122;2023-06-24T05:42:12;101093.47;;;25.57
67599;BMP280;62026;39.230;9.122;2023-06-24T05:44:38;101090.44;;;25.59
67599;BMP280;62026;39.230;9.122;2023-06-24T05:47:04;101088.13;;;25.66
67599;BMP280;62026;39.230;9.122;2023-06-24T05:49:30;101089.78;;;25.76
67599;BMP280;62026;39.230;9.122;2023-06-24T05:51:57;101091.75;;;25.84
67599;BMP280;62026;39.230;9.122;2023-06-24T05:54:23;101087.00;;;25.89
67599;BMP280;62026;39.230;9.122;2023-06-24T05:56:50;101082.91;;;25.92
67599;BMP280;62026;39.230;9.122;2023-06-24T05:59:16;101085.13;;;25.90
67599;BMP280;62026;39.230;9.122;2023-06-24T06:01:42;101089.75;;;25.98
67599;BMP280;62026;39.230;9.122;2023-06-24T06:04:07;101081.84;;;26.02
67599;BMP280;62026;39.230;9.122;2023-06-24T06:06:34;101094.44;;;26.06
67599;BMP280;62026;39.230;9.122;2023-06-24T06:09:00;101086.53;;;26.18
67599;BMP280;62026;39.230;9.122;2023-06-24T06:11:26;101084.88;;;26.31
67599;BMP280;62026;39.230;9.122;2023-06-24T06:13:52;101096.50;;;26.31
67599;BMP280;62026;39.230;9.122;2023-06-24T06:16:18;101102.28;;;26.38
67599;BMP280;62026;39.230;9.122;2023-06-24T06:18:44;101099.91;;;26.46
67599;BMP280;62026;39.230;9.122;2023-06-24T06:21:10;101099.59;;;26.47
67599;BMP280;62026;39.230;9.122;2023-06-24T06:23:36;101094.97;;;26.48
67599;BMP280;62026;39.230;9.122;2023-06-24T06:26:02;101103.44;;;26.55
67599;BMP280;62026;39.230;9.122;2023-06-24T06:28:28;101098.72;;;26.69
67599;BMP280;62026;39.230;9.122;2023-06-24T06:30:54;101101.25;;;26.74
67599;BMP280;62026;39.230;9.122;2023-06-24T06:33:23;101103.97;;;26.82
67599;BMP280;62026;39.230;9.122;2023-06-24T06:35:49;101103.72;;;26.93
67599;BMP280;62026;39.230;9.122;2023-06-24T06:38:15;101110.72;;;26.94
67599;BMP280;62026;39.230;9.122;2023-06-24T06:40:41;101109.94;;;27.02
67599;BMP280;62026;39.230;9.122;2023-06-24T06:43:07;101111.72;;;27.06
67599;BMP280;62026;39.230;9.122;2023-06-24T06:45:33;101113.63;;;27.14
67599;BMP280;62026;39.230;9.122;2023-06-24T06:48:00;101115.38;;;27.10
67599;BMP280;62026;39.230;9.122;2023-06-24T06:50:25;101118.41;;;27.17
67599;BMP280;62026;39.230;9.122;2023-06-24T06:52:51;101118.41;;;27.17
67599;BMP280;62026;39.230;9.122;2023-06-24T06:55:18;101119.22;;;27.27
67599;BMP280;62026;39.230;9.122;2023-06-24T06:57:43;101120.50;;;27.46
67599;BMP280;62026;39.230;9.122;2023-06-24T07:00:10;101132.00;;;27.60
67599;BMP280;62026;39.230;9.122;2023-06-24T07:02:36;101135.50;;;27.52
67599;BMP280;62026;39.230;9.122;2023-06-24T07:05:02;101135.34;;;27.49
67599;BMP280;62026;39.230;9.122;2023-06-24T07:07:28;101135.00;;;27.59
67599;BMP280;62026;39.230;9.122;2023-06-24T07:09:54;101142.66;;;27.74
67599;BMP280;62026;39.230;9.122;2023-06-24T07:12:20;101129.22;;;27.86
67599;BMP280;62026;39.230;9.122;2023-06-24T07:14:46;101146.00;;;27.88
67599;BMP280;62026;39.230;9.122;2023-06-24T07:17:12;101149.81;;;27.96
67599;BMP280;62026;39.230;9.122;2023-06-24T07:19:38;101143.75;;;27.99
67599;BMP280;62026;39.230;9.122;2023-06-24T07:22:04;101138.22;;;28.33
67599;BMP280;62026;39.230;9.122;2023-06-24T07:24:31;101142.75;;;28.21
67599;BMP280;62026;39.230;9.122;2023-06-24T07:26:57;101151.78;;;28.33
67599;BMP280;62026;39.230;9.122;2023-06-24T07:29:23;101142.84;;;28.33
67599;BMP280;62026;39.230;9.122;2023-06-24T07:31:49;101145.03;;;28.48
67599;BMP280;62026;39.230;9.122;2023-06-24T07:34:15;101148.44;;;28.36
67599;BMP280;62026;39.230;9.122;2023-06-24T07:36:41;101142.84;;;28.33
67599;BMP280;62026;39.230;9.122;2023-06-24T07:39:07;101138.78;;;28.47
67599;BMP280;62026;39.230;9.122;2023-06-24T07:41:33;101139.09;;;28.55
67599;BMP280;62026;39.230;9.122;2023-06-24T07:43:59;101143.22;;;28.61
67599;BMP280;62026;39.230;9.122;2023-06-24T07:46:25;101145.88;;;28.69
67599;BMP280;62026;39.230;9.122;2023-06-24T07:48:53;101142.44;;;28.81
67599;BMP280;62026;39.230;9.122;2023-06-24T07:51:19;101141.66;;;28.80
67599;BMP280;62026;39.230;9.122;2023-06-24T07:53:45;101137.97;;;28.85
67599;BMP280;62026;39.230;9.122;2023-06-24T07:56:11;101147.19;;;28.92
67599;BMP280;62026;39.230;9.122;2023-06-24T07:58:37;101143.03;;;29.16
67599;BMP280;62026;39.230;9.122;2023-06-24T08:01:04;101143.38;;;29.35
67599;BMP280;62026;39.230;9.122;2023-06-24T08:03:30;101144.75;;;29.41
67599;BMP280;62026;39.230;9.122;2023-06-24T08:05:56;101137.44;;;29.54
67599;BMP280;62026;39.230;9.122;2023-06-24T08:08:22;101144.41;;;29.43
67599;BMP280;62026;39.230;9.122;2023-06-24T08:10:48;101136.53;;;29.50
67599;BMP280;62026;39.230;9.122;2023-06-24T08:13:14;101136.84;;;29.81
67599;BMP280;62026;39.230;9.122;2023-06-24T08:15:40;101138.19;;;29.75
67599;BMP280;62026;39.230;9.122;2023-06-24T08:18:06;101131.50;;;29.72
67599;BMP280;62026;39.230;9.122;2023-06-24T08:20:32;101134.28;;;29.64
67599;BMP280;62026;39.230;9.122;2023-06-24T08:22:58;101129.00;;;29.79
67599;BMP280;62026;39.230;9.122;2023-06-24T08:25:24;101127.34;;;29.99
67599;BMP280;62026;39.230;9.122;2023-06-24T08:27:50;101125.06;;;30.01
67599;BMP280;62026;39.230;9.122;2023-06-24T08:30:16;101125.16;;;29.93
67599;BMP280;62026;39.230;9.122;2023-06-24T08:32:42;101123.84;;;30.11
67599;BMP280;62026;39.230;9.122;2023-06-24T08:35:09;101116.56;;;30.03
67599;BMP280;62026;39.230;9.122;2023-06-24T08:37:37;101123.38;;;30.21
67599;BMP280;62026;39.230;9.122;2023-06-24T08:40:04;101117.84;;;30.42
67599;BMP280;62026;39.230;9.122;2023-06-24T08:42:31;101120.53;;;30.54
67599;BMP280;62026;39.230;9.122;2023-06-24T08:44:57;101123.84;;;30.35
67599;BMP280;62026;39.230;9.122;2023-06-24T08:47:28;101119.66;;;30.50
67599;BMP280;62026;39.230;9.122;2023-06-24T08:50:09;101118.94;;;30.41
67599;BMP280;62026;39.230;9.122;2023-06-24T08:52:42;101113.19;;;30.42
67599;BMP280;62026;39.230;9.122;2023-06-24T08:55:13;101114.19;;;30.50
67599;BMP280;62026;39.230;9.122;2023-06-24T08:57:42;101106.13;;;30.41
67599;BMP280;62026;39.230;9.122;2023-06-24T09:00:08;101102.47;;;30.61
67599;BMP280;62026;39.230;9.122;2023-06-24T09:02:38;101096.50;;;30.84
67599;BMP280;62026;39.230;9.122;2023-06-24T09:05:06;101097.22;;;30.68
67599;BMP280;62026;39.230;9.122;2023-06-24T09:07:32;101098.63;;;30.50
67599;BMP280;62026;39.230;9.122;2023-06-24T09:09:59;101095.25;;;30.41
67599;BMP280;62026;39.230;9.122;2023-06-24T09:12:26;101091.59;;;30.49
67599;BMP280;62026;39.230;9.122;2023-06-24T09:14:53;101086.31;;;30.68
67599;BMP280;62026;39.230;9.122;2023-06-24T09:17:20;101083.81;;;30.63
67599;BMP280;62026;39.230;9.122;2023-06-24T09:19:49;101074.34;;;30.85
67599;BMP280;62026;39.230;9.122;2023-06-24T09:22:15;101071.06;;;30.80
67599;BMP280;62026;39.230;9.122;2023-06-24T09:24:46;101070.34;;;30.95
67599;BMP280;62026;39.230;9.122;2023-06-24T09:27:15;101070.47;;;31.14
67599;BMP280;62026;39.230;9.122;2023-06-24T09:29:42;101069.09;;;31.20
67599;BMP280;62026;39.230;9.122;2023-06-24T09:32:09;101069.84;;;31.05
67599;BMP280;62026;39.230;9.122;2023-06-24T09:34:35;101058.50;;;31.03
67599;BMP280;62026;39.230;9.122;2023-06-24T09:37:01;101062.25;;;31.26
67599;BMP280;62026;39.230;9.122;2023-06-24T09:39:35;101057.22;;;31.28
67599;BMP280;62026;39.230;9.122;2023-06-24T09:42:04;101060.25;;;31.11
67599;BMP280;62026;39.230;9.122;2023-06-24T09:44:30;101056.03;;;30.86
67599;BMP280;62026;39.230;9.122;2023-06-24T09:46:57;101047.31;;;30.80
67599;BMP280;62026;39.230;9.122;2023-06-24T09:49:23;101044.25;;;31.09
67599;BMP280;62026;39.230;9.122;2023-06-24T09:51:57;101043.75;;;30.92
67599;BMP280;62026;39.230;9.122;2023-06-24T09:54:28;101034.84;;;31.23
67599;BMP280;62026;39.230;9.122;2023-06-24T09:57:00;101033.72;;;31.55
67599;BMP280;62026;39.230;9.122;2023-06-24T09:59:27;101026.47;;;31.62
67599;BMP280;62026;39.230;9.122;2023-06-24T10:01:54;101022.69;;;31.20
67599;BMP280;62026;39.230;9.122;2023-06-24T10:04:21;101024.47;;;31.44
67599;BMP280;62026;39.230;9.122;2023-06-24T10:06:51;101027.19;;;31.44
67599;BMP280;62026;39.230;9.122;2023-06-24T10:09:17;101021.69;;;31.40
67599;BMP280;62026;39.230;9.122;2023-06-24T10:11:46;101026.31;;;31.40
67599;BMP280;62026;39.230;9.122;2023-06-24T10:14:17;101021.78;;;31.59
67599;BMP280;62026;39.230;9.122;2023-06-24T10:16:44;101020.78;;;31.36
67599;BMP280;62026;39.230;9.122;2023-06-24T10:19:18;101016.75;;;31.46
67599;BMP280;62026;39.230;9.122;2023-06-24T10:21:47;101014.78;;;31.46
67599;BMP280;62026;39.230;9.122;2023-06-24T10:24:36;101016.72;;;31.61
67599;BMP280;62026;39.230;9.122;2023-06-24T10:27:17;101013.38;;;31.21
67599;BMP280;62026;39.230;9.122;2023-06-24T10:29:49;101012.06;;;31.62
67599;BMP280;62026;39.230;9.122;2023-06-24T10:32:15;101007.03;;;31.80
67599;BMP280;62026;39.230;9.122;2023-06-24T10:34:43;101013.56;;;31.59
67599;BMP280;62026;39.230;9.122;2023-06-24T10:37:18;101003.38;;;31.56
67599;BMP280;62026;39.230;9.122;2023-06-24T10:45:02;101000.16;;;31.23
67599;BMP280;62026;39.230;9.122;2023-06-24T10:50:10;100996.22;;;31.21
67599;BMP280;62026;39.230;9.122;2023-06-24T10:52:42;101001.66;;;31.21
67599;BMP280;62026;39.230;9.122;2023-06-24T10:55:09;100997.72;;;31.49
67599;BMP280;62026;39.230;9.122;2023-06-24T10:57:35;100986.44;;;31.35
67599;BMP280;62026;39.230;9.122;2023-06-24T11:00:04;100989.25;;;31.39
67599;BMP280;62026;39.230;9.122;2023-06-24T11:02:30;100983.09;;;31.26
67599;BMP280;62026;39.230;9.122;2023-06-24T11:04:59;100983.34;;;31.37
67599;BMP280;62026;39.230;9.122;2023-06-24T11:07:31;100991.53;;;31.21
67599;BMP280;62026;39.230;9.122;2023-06-24T11:10:02;100986.59;;;31.11
67599;BMP280;62026;39.230;9.122;2023-06-24T11:12:33;100975.88;;;31.18
67599;BMP280;62026;39.230;9.122;2023-06-24T11:15:06;100964.75;;;31.11
67599;BMP280;62026;39.230;9.122;2023-06-24T11:17:34;100968.28;;;31.27
67599;BMP280;62026;39.230;9.122;2023-06-24T11:20:02;100966.25;;;31.40
67599;BMP280;62026;39.230;9.122;2023-06-24T11:22:32;100958.50;;;31.57
67599;BMP280;62026;39.230;9.122;2023-06-24T11:24:57;100953.69;;;31.04
67599;BMP280;62026;39.230;9.122;2023-06-24T11:27:29;100953.88;;;31.27
67599;BMP280;62026;39.230;9.122;2023-06-24T11:30:00;100955.53;;;31.15
67599;BMP280;62026;39.230;9.122;2023-06-24T11:32:38;100947.06;;;31.36
67599;BMP280;62026;39.230;9.122;2023-06-24T11:35:07;100947.50;;;31.38
67599;BMP280;62026;39.230;9.122;2023-06-24T11:37:34;100934.38;;;31.59
67599;BMP280;62026;39.230;9.122;2023-06-24T11:40:07;100935.91;;;31.41
67599;BMP280;62026;39.230;9.122;2023-06-24T11:42:41;100939.94;;;31.32
67599;BMP280;62026;39.230;9.122;2023-06-24T11:45:12;100939.44;;;31.26
67599;BMP280;62026;39.230;9.122;2023-06-24T11:47:39;100945.13;;;31.37
67599;BMP280;62026;39.230;9.122;2023-06-24T11:50:07;100935.66;;;29.79
67599;BMP280;62026;39.230;9.122;2023-06-24T11:52:43;100938.53;;;28.48
67599;BMP280;62026;39.230;9.122;2023-06-24T11:55:24;100946.75;;;29.26
67599;BMP280;62026;39.230;9.122;2023-06-24T12:00:35;100938.09;;;28.79
67599;BMP280;62026;39.230;9.122;2023-06-24T12:03:05;100936.31;;;29.16
67599;BMP280;62026;39.230;9.122;2023-06-24T12:05:35;100926.34;;;29.20
67599;BMP280;62026;39.230;9.122;2023-06-24T12:08:10;100932.03;;;29.27
67599;BMP280;62026;39.230;9.122;2023-06-24T12:10:38;100928.63;;;28.64
67599;BMP280;62026;39.230;9.122;2023-06-24T12:13:05;100932.97;;;28.65
67599;BMP280;62026;39.230;9.122;2023-06-24T12:15:34;100930.31;;;28.36
67599;BMP280;62026;39.230;9.122;2023-06-24T12:18:01;100929.41;;;28.52
67599;BMP280;62026;39.230;9.122;2023-06-24T12:20:31;100919.28;;;28.32
67599;BMP280;62026;39.230;9.122;2023-06-24T12:22:58;100922.06;;;28.86
67599;BMP280;62026;39.230;9.122;2023-06-24T12:25:24;100916.44;;;28.70
67599;BMP280;62026;39.230;9.122;2023-06-24T12:27:50;100926.50;;;28.90
67599;BMP280;62026;39.230;9.122;2023-06-24T12:30:17;100926.94;;;28.60
67599;BMP280;62026;39.230;9.122;2023-06-24T12:32:43;100927.06;;;28.42
67599;BMP280;62026;39.230;9.122;2023-06-24T12:35:10;100930.53;;;28.84
67599;BMP280;62026;39.230;9.122;2023-06-24T12:37:36;100933.72;;;28.66
67599;BMP280;62026;39.230;9.122;2023-06-24T12:40:04;100935.63;;;28.53
67599;BMP280;62026;39.230;9.122;2023-06-24T12:42:30;100940.41;;;28.56
67599;BMP280;62026;39.230;9.122;2023-06-24T12:44:56;100941.50;;;28.55
67599;BMP280;62026;39.230;9.122;2023-06-24T12:47:22;100944.88;;;28.73
67599;BMP280;62026;39.230;9.122;2023-06-24T12:49:49;100935.88;;;28.60
67599;BMP280;62026;39.230;9.122;2023-06-24T12:52:16;100939.84;;;28.42
67599;BMP280;62026;39.230;9.122;2023-06-24T12:54:42;100929.13;;;28.66
67599;BMP280;62026;39.230;9.122;2023-06-24T12:57:08;100926.03;;;28.88
67599;BMP280;62026;39.230;9.122;2023-06-24T12:59:34;100926.94;;;28.92
67599;BMP280;62026;39.230;9.122;2023-06-24T13:02:01;100939.81;;;28.83
67599;BMP280;62026;39.230;9.122;2023-06-24T13:04:27;100932.53;;;28.75
67599;BMP280;62026;39.230;9.122;2023-06-24T13:06:53;100925.97;;;28.43
67599;BMP280;62026;39.230;9.122;2023-06-24T13:09:20;100931.84;;;28.66
67599;BMP280;62026;39.230;9.122;2023-06-24T13:11:46;100929.91;;;28.67
67599;BMP280;62026;39.230;9.122;2023-06-24T13:14:13;100947.13;;;28.71
67599;BMP280;62026;39.230;9.122;2023-06-24T13:16:39;100949.53;;;28.51
67599;BMP280;62026;39.230;9.122;2023-06-24T13:19:06;100936.31;;;28.41
67599;BMP280;62026;39.230;9.122;2023-06-24T13:21:31;100939.59;;;28.35
67599;BMP280;62026;39.230;9.122;2023-06-24T13:23:57;100929.91;;;28.46
67599;BMP280;62026;39.230;9.122;2023-06-24T13:26:23;100931.31;;;28.31
67599;BMP280;62026;39.230;9.122;2023-06-24T13:28:50;100930.44;;;28.39
67599;BMP280;62026;39.230;9.122;2023-06-24T13:31:16;100947.47;;;28.28
67599;BMP280;62026;39.230;9.122;2023-06-24T13:33:42;100936.13;;;28.26
67599;BMP280;62026;39.230;9.122;2023-06-24T13:36:30;100949.81;;;28.08
67599;BMP280;62026;39.230;9.122;2023-06-24T13:38:58;100930.72;;;28.26
67599;BMP280;62026;39.230;9.122;2023-06-24T13:41:24;100923.03;;;28.28
67599;BMP280;62026;39.230;9.122;2023-06-24T13:43:53;100934.16;;;28.35
67599;BMP280;62026;39.230;9.122;2023-06-24T13:46:19;100921.19;;;28.11
67599;BMP280;62026;39.230;9.122;2023-06-24T13:48:45;100917.22;;;28.08
67599;BMP280;62026;39.230;9.122;2023-06-24T13:51:11;100919.28;;;28.12
67599;BMP280;62026;39.230;9.122;2023-06-24T13:53:37;100928.50;;;28.19
67599;BMP280;62026;39.230;9.122;2023-06-24T13:56:03;100923.81;;;28.07
67599;BMP280;62026;39.230;9.122;2023-06-24T13:58:29;100921.97;;;28.20
67599;BMP280;62026;39.230;9.122;2023-06-24T14:00:55;100915.84;;;28.23
67599;BMP280;62026;39.230;9.122;2023-06-24T14:03:21;100912.00;;;28.24
67599;BMP280;62026;39.230;9.122;2023-06-24T14:05:47;100910.97;;;28.17
67599;BMP280;62026;39.230;9.122;2023-06-24T14:08:13;100915.19;;;28.26
67599;BMP280;62026;39.230;9.122;2023-06-24T14:10:39;100907.78;;;28.15
67599;BMP280;62026;39.230;9.122;2023-06-24T14:13:05;100916.56;;;28.12
67599;BMP280;62026;39.230;9.122;2023-06-24T14:15:31;100904.03;;;27.98
67599;BMP280;62026;39.230;9.122;2023-06-24T14:17:57;100895.69;;;28.03
67599;BMP280;62026;39.230;9.122;2023-06-24T14:20:23;100899.97;;;28.04
67599;BMP280;62026;39.230;9.122;2023-06-24T14:22:51;100899.63;;;28.15
67599;BMP280;62026;39.230;9.122;2023-06-24T14:25:17;100912.00;;;28.03